Terminal Aerodrome Forecast
Issued by NWS Wilmington, OH

Current Version | Previous Version | Text Only | Print | Product List | Glossary On
Versions: 1 2 3 4 5 6 7 8 9 10 11 12 13 14 15 16 17 18
000
FTUS41 KILN 170901 AAA
TAFCMH
TAF AMD
KCMH 170901Z 1709/1806 24004KT P6SM -SN OVC012
     FM171100 25003KT P6SM SCT012
     FM171800 25008KT P6SM SCT035 SCT150
     FM180000 24006KT P6SM SCT120 BKN200=

USA.gov is the U.S. government's official web portal to all federal, state and local government web resources and services.